Time;durP1;ratioP1;P1;durP2;ratioP2;P2;SDS_P1;SDS_P2;PMS_P1;PMS_P2;Temp;Humidity;BMP_temperature;BMP_pressure;BME280_temperature;BME280_humidity;BME280_pressure;Samples;Min_cycle;Max_cycle;Signal;HPM_P1;HPM_P2
2022/03/21 00:02:55;;;;;;;16.48;10.70;;;;;;;3.11;34.83;99677.84;12606130;23;20037;-79
2022/03/21 00:08:17;;;;;;;17.23;10.02;;;;;;;3.03;35.24;99671.28;12615219;23;20046;-79
2022/03/21 00:13:38;;;;;;;16.15;10.60;;;;;;;2.96;35.29;99677.28;12613435;23;20034;-79
2022/03/21 00:19:02;;;;;;;15.63;9.70;;;;;;;2.93;35.29;99685.81;12593115;23;20429;-79
2022/03/21 00:24:23;;;;;;;13.88;9.45;;;;;;;2.86;34.66;99678.75;12575660;23;20030;-79
2022/03/21 00:29:43;;;;;;;15.13;10.43;;;;;;;2.80;35.43;99686.25;12613904;23;20026;-78
2022/03/21 00:35:12;;;;;;;17.67;9.55;;;;;;;2.74;34.87;99683.47;12614415;23;20014;-80
2022/03/21 00:40:32;;;;;;;17.40;10.27;;;;;;;2.57;36.14;99677.88;12594046;23;20045;-80
2022/03/21 00:45:55;;;;;;;19.08;10.07;;;;;;;2.43;35.98;99676.03;12624712;23;20042;-79
2022/03/21 00:51:16;;;;;;;14.02;9.43;;;;;;;2.23;35.73;99679.69;12617577;23;20022;-80
2022/03/21 00:56:36;;;;;;;17.08;10.25;;;;;;;2.06;36.88;99670.53;12600870;23;20030;-78
2022/03/21 01:01:57;;;;;;;14.15;9.38;;;;;;;1.98;36.56;99667.47;12558088;23;20019;-79
2022/03/21 01:07:18;;;;;;;13.57;8.63;;;;;;;1.93;36.89;99670.97;12582678;23;20097;-80
2022/03/21 01:12:40;;;;;;;15.20;9.52;;;;;;;1.89;37.42;99670.41;12557868;23;20712;-79
2022/03/21 01:18:01;;;;;;;17.23;10.00;;;;;;;1.89;37.16;99664.91;12623256;23;20041;-79
2022/03/21 01:23:22;;;;;;;16.35;10.65;;;;;;;1.83;37.56;99660.59;12580972;23;20472;-79
2022/03/21 01:28:43;;;;;;;14.23;9.57;;;;;;;1.83;37.48;99661.34;12620468;23;20022;-80
2022/03/21 01:34:04;;;;;;;15.70;9.65;;;;;;;1.75;37.74;99665.06;12581617;23;20070;-79
2022/03/21 01:39:25;;;;;;;14.40;9.40;;;;;;;1.70;37.56;99648.00;12585650;23;20014;-79
2022/03/21 01:44:53;;;;;;;16.48;9.48;;;;;;;1.61;38.19;99653.66;12624074;23;20089;-80
2022/03/21 01:50:14;;;;;;;15.50;9.18;;;;;;;1.56;37.90;99667.41;12628712;23;20196;-79
2022/03/21 01:55:44;;;;;;;16.67;8.85;;;;;;;1.52;38.20;99661.34;12612708;23;20018;-80
2022/03/21 02:01:05;;;;;;;14.63;9.52;;;;;;;1.51;38.41;99668.09;12614028;23;20066;-79
2022/03/21 02:06:30;;;;;;;14.10;9.07;;;;;;;1.51;38.37;99668.84;12594243;23;20014;-80
2022/03/21 02:11:51;;;;;;;14.45;8.50;;;;;;;1.56;37.91;99665.41;12591788;23;20042;-79
2022/03/21 02:17:16;;;;;;;16.83;8.90;;;;;;;1.56;38.20;99654.38;12591574;23;20026;-80
2022/03/21 02:23:05;;;;;;;13.77;8.70;;;;;;;1.58;38.24;99653.91;12614729;23;20489;-80
2022/03/21 02:28:26;;;;;;;13.05;8.80;;;;;;;1.53;37.94;99649.84;12652796;23;20037;-80
2022/03/21 02:33:48;;;;;;;14.00;9.35;;;;;;;1.44;38.50;99653.50;12612618;23;20095;-80
2022/03/21 02:39:10;;;;;;;16.17;8.77;;;;;;;1.46;37.89;99647.53;12638430;23;20066;-81
2022/03/21 02:44:37;;;;;;;15.50;9.68;;;;;;;1.35;38.64;99650.97;12608173;23;20037;-79
2022/03/21 02:49:59;;;;;;;15.60;9.60;;;;;;;1.30;38.61;99651.66;12598221;23;20022;-80
2022/03/21 02:55:22;;;;;;;17.90;9.88;;;;;;;1.27;38.67;99658.13;12650215;23;20018;-78
2022/03/21 03:00:43;;;;;;;14.35;9.27;;;;;;;1.21;38.68;99653.81;12590808;23;20017;-80
2022/03/21 03:06:04;;;;;;;15.05;9.13;;;;;;;1.19;38.64;99654.28;12590525;23;20030;-80
2022/03/21 03:11:26;;;;;;;13.02;8.45;;;;;;;1.06;39.11;99645.63;12591260;23;20019;-81
2022/03/21 03:16:47;;;;;;;16.92;9.85;;;;;;;0.98;39.49;99650.06;12609918;23;20046;-80
2022/03/21 03:22:08;;;;;;;16.48;9.73;;;;;;;0.95;39.39;99634.53;12610301;23;20022;-80
2022/03/21 03:27:30;;;;;;;14.68;9.27;;;;;;;0.73;39.96;99630.28;12611238;23;20034;-80
2022/03/21 03:32:51;;;;;;;14.00;9.25;;;;;;;0.63;39.87;99630.91;12631510;23;20018;-80
2022/03/21 03:38:13;;;;;;;17.05;9.65;;;;;;;0.56;40.55;99634.81;12570608;23;20046;-80
2022/03/21 03:43:33;;;;;;;14.73;9.43;;;;;;;0.56;39.79;99626.56;12615043;23;20019;-80
2022/03/21 03:48:55;;;;;;;13.32;9.13;;;;;;;0.45;40.57;99629.19;12596804;23;20022;-80
2022/03/21 03:54:18;;;;;;;14.93;9.05;;;;;;;0.39;40.80;99618.16;12619577;23;20030;-79
2022/03/21 03:59:40;;;;;;;16.27;9.38;;;;;;;0.34;40.67;99623.56;12617569;23;20042;-79
2022/03/21 04:05:01;;;;;;;14.82;8.88;;;;;;;0.26;40.49;99615.72;12617613;23;20042;-80
2022/03/21 04:10:22;;;;;;;14.73;9.38;;;;;;;0.11;41.08;99625.25;12617757;23;20437;-81
2022/03/21 04:15:45;;;;;;;17.13;9.75;;;;;;;-0.01;41.83;99607.84;12573242;23;20031;-80
2022/03/21 04:21:05;;;;;;;17.40;9.63;;;;;;;-0.17;42.10;99611.88;12618696;23;20022;-80
2022/03/21 04:26:26;;;;;;;17.02;10.43;;;;;;;-0.09;42.60;99617.72;12619147;23;20019;-81
2022/03/21 04:31:47;;;;;;;15.05;9.10;;;;;;;-0.13;42.75;99611.66;12618832;23;20022;-81
2022/03/21 04:37:08;;;;;;;16.13;9.15;;;;;;;-0.14;42.73;99626.63;12599353;23;20024;-81
2022/03/21 04:42:29;;;;;;;16.80;9.35;;;;;;;-0.05;42.71;99637.50;12619589;23;20023;-81
2022/03/21 04:47:50;;;;;;;14.75;9.32;;;;;;;0.10;42.61;99651.22;12599846;23;20457;-80
2022/03/21 04:53:11;;;;;;;16.40;8.50;;;;;;;0.18;42.79;99650.31;12599371;23;20030;-80
2022/03/21 04:58:32;;;;;;;13.60;7.95;;;;;;;0.28;42.69;99646.19;12618067;23;20046;-80
2022/03/21 05:03:53;;;;;;;16.85;8.88;;;;;;;0.41;42.59;99643.13;12597269;23;20101;-81
2022/03/21 05:09:14;;;;;;;17.08;8.73;;;;;;;0.56;42.34;99643.06;12617527;23;20022;-80
2022/03/21 05:14:35;;;;;;;14.52;8.60;;;;;;;0.79;42.34;99655.84;12597912;23;20030;-80
2022/03/21 05:19:56;;;;;;;16.20;8.65;;;;;;;1.15;41.89;99659.22;12577760;23;20082;-81
2022/03/21 05:30:57;;;;;;;14.60;9.57;;;;;;;1.79;40.70;99663.59;12610879;23;20022;-82
2022/03/21 05:36:21;;;;;;;15.65;9.13;;;;;;;2.11;40.16;99669.06;12638131;23;20026;-82
2022/03/21 05:41:42;;;;;;;17.80;9.83;;;;;;;2.61;39.04;99676.91;12600185;23;20027;-81
2022/03/21 05:47:03;;;;;;;20.40;9.98;;;;;;;3.48;39.35;99676.91;12597294;23;20045;-80
2022/03/21 05:52:25;;;;;;;19.48;9.70;;;;;;;5.76;36.94;99685.00;12617661;23;20209;-78
2022/03/21 05:57:46;;;;;;;15.57;9.68;;;;;;;7.02;33.08;99693.13;12614068;23;20037;-80
2022/03/21 06:03:08;;;;;;;14.13;10.02;;;;;;;8.16;32.30;99688.91;12613970;23;20019;-80
2022/03/21 06:08:29;;;;;;;16.88;9.98;;;;;;;9.27;29.99;99697.19;12608243;23;20029;-81
2022/03/21 06:13:50;;;;;;;13.85;9.63;;;;;;;9.95;28.18;99713.13;12592994;23;20023;-81
2022/03/21 06:19:11;;;;;;;15.55;9.23;;;;;;;9.97;28.15;99702.19;12604989;23;20025;-80
2022/03/21 06:24:32;;;;;;;15.20;9.68;;;;;;;11.98;24.42;99715.38;12646332;23;20026;-81
2022/03/21 06:29:52;;;;;;;12.90;9.02;;;;;;;12.51;25.34;99706.97;12644373;23;20034;-80
2022/03/21 06:35:13;;;;;;;14.77;8.75;;;;;;;12.88;24.89;99719.41;12662660;23;20022;-78
2022/03/21 06:40:34;;;;;;;12.07;9.27;;;;;;;11.92;24.45;99723.19;12643804;23;20041;-80
2022/03/21 06:45:55;;;;;;;16.88;8.38;;;;;;;12.17;25.61;99737.41;12599896;23;20319;-87
2022/03/21 06:51:16;;;;;;;16.00;9.13;;;;;;;12.65;24.42;99734.78;12598663;23;20026;-82
2022/03/21 06:56:37;;;;;;;13.75;8.80;;;;;;;15.07;23.06;99745.19;12579069;23;20014;-80
2022/03/21 07:01:58;;;;;;;12.48;7.45;;;;;;;20.61;19.12;99739.06;12594692;23;20315;-82
2022/03/21 07:07:19;;;;;;;10.57;6.97;;;;;;;24.77;14.80;99735.47;12578615;23;20025;-79
2022/03/21 07:12:40;;;;;;;9.93;7.10;;;;;;;27.92;10.71;99752.03;12597513;23;20350;-81
2022/03/21 07:18:02;;;;;;;9.73;6.78;;;;;;;30.06;10.42;99743.22;12597481;23;20333;-84
2022/03/21 07:23:23;;;;;;;11.23;6.63;;;;;;;31.87;7.59;99749.34;12598375;23;20021;-85
2022/03/21 07:28:44;;;;;;;11.55;6.13;;;;;;;32.97;7.04;99753.56;12597451;23;20024;-85
2022/03/21 07:34:25;;;;;;;7.18;5.82;;;;;;;32.87;6.52;99750.56;12565607;23;20053;-85
2022/03/21 07:39:47;;;;;;;8.20;6.00;;;;;;;31.62;6.31;99751.13;12558724;23;20014;-85
2022/03/21 07:50:48;;;;;;;7.00;5.67;;;;;;;30.96;5.92;99766.63;12564693;23;20029;-84
2022/03/21 07:56:08;;;;;;;;;;;;;;;32.99;4.69;99753.56;12597153;23;20034;-84
2022/03/21 08:01:29;;;;;;;7.82;5.85;;;;;;;32.13;5.02;99761.25;12595483;23;19917;-84
2022/03/21 08:06:53;;;;;;;9.63;5.43;;;;;;;33.64;5.29;99757.00;12557611;23;20500;-84
2022/03/21 08:12:14;;;;;;;8.85;5.25;;;;;;;33.86;5.02;99754.22;12558399;23;20045;-84
2022/03/21 08:17:50;;;;;;;10.23;5.97;;;;;;;35.34;3.82;99761.94;12576989;23;20433;-86
2022/03/21 08:23:12;;;;;;;12.15;5.30;;;;;;;37.24;4.10;99759.00;12577111;23;20378;-84
2022/03/21 08:28:33;;;;;;;5.88;5.20;;;;;;;37.91;3.67;99772.94;12577345;23;20018;-85
2022/03/21 08:33:54;;;;;;;8.48;5.18;;;;;;;38.86;3.47;99759.34;12595978;23;20014;-84
2022/03/21 08:39:15;;;;;;;7.80;4.55;;;;;;;39.44;2.86;99751.13;12556179;23;20053;-85
2022/03/21 08:44:37;;;;;;;11.63;5.47;;;;;;;38.81;2.61;99751.44;12556109;23;20073;-84
2022/03/21 08:49:58;;;;;;;8.45;4.70;;;;;;;40.04;2.70;99741.97;12577260;23;20073;-86
2022/03/21 08:55:19;;;;;;;7.65;5.15;;;;;;;40.67;2.40;99737.69;12556727;23;20025;-85
2022/03/21 09:00:40;;;;;;;8.23;4.47;;;;;;;40.91;2.17;99736.41;12552018;23;20456;-84
2022/03/21 09:06:01;;;;;;;7.03;4.75;;;;;;;40.87;1.98;99736.53;12552105;23;20026;-85
2022/03/21 09:11:21;;;;;;;6.32;3.30;;;;;;;39.13;2.15;99744.38;12534717;23;20028;-85
2022/03/21 09:16:43;;;;;;;5.97;3.20;;;;;;;38.07;2.19;99713.75;12555624;23;20073;-85
2022/03/21 09:22:04;;;;;;;5.72;2.97;;;;;;;36.73;2.56;99720.81;12576385;23;20433;-85
2022/03/21 09:27:27;;;;;;;3.38;3.08;;;;;;;36.61;2.71;99721.63;12596353;23;20069;-86
2022/03/21 09:32:49;;;;;;;4.88;3.10;;;;;;;36.93;2.88;99711.97;12577551;23;20019;-84
2022/03/21 09:38:10;;;;;;;5.05;3.10;;;;;;;36.44;2.60;99721.00;12576060;23;20441;-84
2022/03/21 09:43:31;;;;;;;3.90;3.10;;;;;;;35.80;3.35;99708.16;12594661;23;20014;-85
2022/03/21 09:48:55;;;;;;;4.13;2.80;;;;;;;34.86;3.34;99707.50;12595131;23;20014;-86
2022/03/21 09:54:16;;;;;;;3.20;2.60;;;;;;;36.19;2.73;99693.47;12576861;23;20338;-84
2022/03/21 09:59:38;;;;;;;5.00;2.80;;;;;;;36.97;2.33;99709.03;12595158;23;20025;-83
2022/03/21 10:04:59;;;;;;;5.75;3.08;;;;;;;36.74;2.65;99701.91;12580094;23;20018;-83
2022/03/21 10:10:20;;;;;;;4.72;2.90;;;;;;;37.84;2.29;99684.19;12594786;23;20025;-84
2022/03/21 10:15:41;;;;;;;3.42;2.38;;;;;;;37.52;2.14;99683.03;12598941;23;20371;-84
2022/03/21 10:21:14;;;;;;;3.63;2.20;;;;;;;36.77;1.87;99682.97;12598631;23;20018;-85
2022/03/21 10:26:40;;;;;;;6.22;2.40;;;;;;;37.50;2.22;99670.69;12598820;23;20030;-81
2022/03/21 10:32:01;;;;;;;2.90;2.08;;;;;;;37.90;2.08;99662.97;12599754;23;20467;-84
2022/03/21 10:37:21;;;;;;;3.70;2.47;;;;;;;37.40;1.94;99664.97;12598207;23;20070;-84
2022/03/21 10:43:11;;;;;;;4.38;2.50;;;;;;;38.23;1.88;99654.53;12558833;23;20069;-84
2022/03/21 10:48:35;;;;;;;4.57;2.55;;;;;;;38.45;1.42;99656.41;12598914;23;20021;-84
2022/03/21 10:53:58;;;;;;;4.50;2.55;;;;;;;37.25;2.27;99662.19;12579363;23;20018;-83
2022/03/21 10:59:18;;;;;;;5.00;2.90;;;;;;;37.33;1.99;99643.22;12559575;23;20022;-83
2022/03/21 11:04:40;;;;;;;3.40;2.80;;;;;;;34.96;2.46;99641.53;12558517;23;20022;-83
2022/03/21 11:10:01;;;;;;;5.18;3.03;;;;;;;28.43;4.38;99644.41;12598512;23;20021;-83
2022/03/21 11:15:22;;;;;;;5.10;3.40;;;;;;;23.84;6.57;99650.09;12597563;23;20066;-83
2022/03/21 11:20:43;;;;;;;3.63;3.00;;;;;;;21.56;7.57;99632.31;12598186;23;20018;-81
2022/03/21 11:26:12;;;;;;;5.85;3.60;;;;;;;20.06;8.87;99633.66;12597120;23;20025;-81
2022/03/21 11:31:48;;;;;;;8.02;3.88;;;;;;;18.96;9.65;99638.16;12578679;23;20337;-82
2022/03/21 11:37:23;;;;;;;6.50;4.10;;;;;;;18.38;10.25;99621.63;12597249;23;20021;-83
2022/03/21 11:42:44;;;;;;;12.10;4.10;;;;;;;18.04;10.60;99617.22;12577174;23;20371;-83
2022/03/21 11:48:18;;;;;;;10.85;4.15;;;;;;;17.58;10.86;99612.66;12559160;23;20393;-80
2022/03/21 11:53:47;;;;;;;6.72;4.22;;;;;;;17.64;11.07;99620.78;12638076;23;20416;-81
2022/03/21 11:59:08;;;;;;;5.53;4.20;;;;;;;17.70;10.91;99616.34;12597721;23;20374;-80
2022/03/21 12:04:30;;;;;;;6.20;4.05;;;;;;;17.33;11.06;99601.72;12582842;23;20049;-80
2022/03/21 12:09:52;;;;;;;9.45;4.63;;;;;;;16.30;11.92;99606.22;12576749;23;20018;-78
2022/03/21 12:15:17;;;;;;;7.90;4.50;;;;;;;16.46;11.94;99586.97;12577852;23;20018;-78
2022/03/21 12:20:49;;;;;;;7.00;4.22;;;;;;;16.13;12.01;99617.63;12598048;23;20022;-79
2022/03/21 12:26:32;;;;;;;6.63;3.90;;;;;;;16.05;11.91;99580.41;12601087;23;20018;-78
2022/03/21 12:32:27;;;;;;;5.68;4.25;;;;;;;16.34;11.96;99572.00;12559303;23;20023;-79
2022/03/21 12:37:48;;;;;;;7.07;4.00;;;;;;;16.12;12.10;99577.47;12600312;23;20022;-78
2022/03/21 12:43:09;;;;;;;6.38;4.75;;;;;;;15.72;12.53;99567.41;12611627;23;20018;-78
2022/03/21 12:48:30;;;;;;;5.65;4.25;;;;;;;15.68;12.25;99586.81;12633187;23;20018;-78
2022/03/21 12:53:51;;;;;;;5.13;3.92;;;;;;;15.53;12.56;99567.31;12613622;23;20018;-78
2022/03/21 12:59:12;;;;;;;5.55;4.68;;;;;;;15.60;12.31;99560.84;12577455;23;20026;-78
2022/03/21 13:10:32;;;;;;;6.22;3.95;;;;;;;15.42;12.57;99568.59;12625167;23;20029;-78
2022/03/21 13:16:10;;;;;;;7.85;5.05;;;;;;;15.24;12.68;99566.44;12605459;23;20023;-78
2022/03/21 13:21:34;;;;;;;7.30;4.38;;;;;;;15.23;12.69;99560.06;12603450;23;20385;-78
2022/03/21 13:26:58;;;;;;;;;;;;;;;15.16;13.08;99558.13;12593233;23;20382;-78
2022/03/21 13:32:19;;;;;;;6.73;5.00;;;;;;;14.88;13.43;99571.44;12651491;23;19924;-78
2022/03/21 13:37:40;;;;;;;7.72;4.47;;;;;;;14.74;13.41;99552.69;12623104;23;20619;-78
2022/03/21 13:43:17;;;;;;;6.38;5.22;;;;;;;14.65;13.76;99548.47;12625617;23;20036;-78
2022/03/21 13:48:40;;;;;;;7.47;4.95;;;;;;;14.70;13.54;99553.09;12604325;23;20014;-79
2022/03/21 13:54:14;;;;;;;8.30;5.32;;;;;;;14.74;13.80;99547.78;12612731;23;20026;-78
2022/03/21 13:59:35;;;;;;;6.55;4.88;;;;;;;14.85;14.15;99546.53;12628273;23;20070;-77
2022/03/21 14:04:57;;;;;;;10.40;5.40;;;;;;;14.70;13.94;99541.13;12604776;23;20030;-78
2022/03/21 14:10:22;;;;;;;9.07;5.35;;;;;;;14.73;14.11;99545.56;12615261;23;20018;-78
2022/03/21 14:15:44;;;;;;;5.78;4.93;;;;;;;14.52;14.27;99543.22;12575556;23;20022;-78
2022/03/21 14:21:06;;;;;;;7.35;5.28;;;;;;;14.38;14.55;99542.78;12623039;23;20041;-78
2022/03/21 14:26:40;;;;;;;6.38;5.18;;;;;;;14.44;14.31;99531.28;12606601;23;20018;-75
2022/03/21 14:32:01;;;;;;;9.48;5.55;;;;;;;14.25;14.72;99529.06;12593495;23;20066;-78
2022/03/21 14:37:22;;;;;;;7.50;5.55;;;;;;;14.23;14.65;99528.91;12593627;23;20023;-78
2022/03/21 14:42:43;;;;;;;7.15;5.20;;;;;;;14.10;14.73;99518.00;12573690;23;20322;-78
2022/03/21 14:48:05;;;;;;;6.75;5.10;;;;;;;14.12;14.54;99518.91;12578205;23;20018;-78
2022/03/21 14:53:27;;;;;;;8.13;5.07;;;;;;;14.01;14.70;99525.75;12574723;23;20033;-74
2022/03/21 14:58:48;;;;;;;7.72;5.63;;;;;;;13.96;14.88;99518.31;12597444;23;20090;-79
2022/03/21 15:04:09;;;;;;;7.45;5.18;;;;;;;13.75;14.89;99509.53;12628167;23;20095;-79
2022/03/21 15:09:30;;;;;;;8.93;5.10;;;;;;;13.72;14.92;99496.66;12639013;23;20014;-79
2022/03/21 15:14:51;;;;;;;7.03;4.82;;;;;;;13.66;14.87;99501.75;12600646;23;20069;-79
2022/03/21 15:20:13;;;;;;;7.55;4.95;;;;;;;13.63;15.14;99500.13;12641146;23;20010;-79
2022/03/21 15:25:35;;;;;;;7.78;4.82;;;;;;;13.60;15.20;99496.38;12635902;23;20073;-79
2022/03/21 15:30:59;;;;;;;10.00;5.20;;;;;;;13.39;15.22;99485.53;12658520;23;20018;-79
2022/03/21 15:41:59;;;;;;;7.88;5.13;;;;;;;13.21;15.16;99478.38;12644675;23;20327;-81
2022/03/21 15:47:20;;;;;;;9.80;4.60;;;;;;;13.20;15.31;99490.16;12606332;23;20025;-80
2022/03/21 15:52:41;;;;;;;6.63;4.60;;;;;;;12.93;15.21;99495.53;12628026;23;20049;-81
2022/03/21 15:58:02;;;;;;;5.95;5.00;;;;;;;12.76;15.14;99482.97;12596359;23;20028;-76
2022/03/21 16:03:24;;;;;;;8.73;4.90;;;;;;;12.78;15.49;99483.13;12619492;23;20073;-79
2022/03/21 16:08:46;;;;;;;6.35;4.70;;;;;;;12.77;15.72;99492.84;12622807;23;20429;-79
2022/03/21 16:14:08;;;;;;;8.57;5.22;;;;;;;12.68;15.51;99490.66;12620631;23;20037;-79
2022/03/21 16:19:31;;;;;;;4.65;3.90;;;;;;;12.56;15.25;99495.19;12608572;23;20050;-80
2022/03/21 16:24:54;;;;;;;7.05;4.60;;;;;;;12.30;15.45;99499.22;12601994;23;20077;-81
2022/03/21 16:30:17;;;;;;;7.65;4.35;;;;;;;12.15;15.28;99497.19;12607598;23;20050;-82
2022/03/21 16:35:39;;;;;;;7.57;5.22;;;;;;;12.00;15.59;99497.25;12613021;23;20030;-83
2022/03/21 16:41:00;;;;;;;6.93;4.97;;;;;;;11.96;15.92;99497.63;12633127;23;20041;-84
2022/03/21 16:46:22;;;;;;;6.47;5.05;;;;;;;11.90;16.09;99499.88;12605245;23;20018;-84
2022/03/21 16:51:44;;;;;;;7.80;5.00;;;;;;;11.79;16.27;99499.50;12489882;23;20094;-84
2022/03/21 16:57:05;;;;;;;9.40;5.30;;;;;;;11.66;16.98;99498.41;12428642;23;20336;-76
2022/03/21 17:02:26;;;;;;;10.80;5.82;;;;;;;11.57;17.44;99496.16;12489662;23;20395;-78
2022/03/21 17:07:47;;;;;;;6.65;4.50;;;;;;;11.33;17.55;99503.06;12492632;23;20071;-79
2022/03/21 17:13:08;;;;;;;8.55;5.13;;;;;;;11.18;17.37;99517.03;12504236;23;20015;-77
2022/03/21 17:23:51;;;;;;;10.27;5.78;;;;;;;10.85;18.11;99522.38;12484070;23;20016;-77
2022/03/21 17:29:21;;;;;;;8.45;6.07;;;;;;;10.67;18.43;99525.47;12487285;23;20030;-78
2022/03/21 17:34:43;;;;;;;9.15;6.10;;;;;;;10.48;18.68;99523.72;12497751;23;20026;-79
2022/03/21 17:40:04;;;;;;;11.38;6.38;;;;;;;10.33;18.89;99537.63;12532111;23;20071;-80
2022/03/21 17:45:30;;;;;;;11.95;6.07;;;;;;;10.24;18.92;99550.06;12487612;23;20026;-79
2022/03/21 17:50:51;;;;;;;9.88;6.15;;;;;;;10.16;19.17;99545.69;12458291;23;20026;-80
2022/03/21 17:56:13;;;;;;;8.88;5.75;;;;;;;10.06;19.43;99550.28;12479478;23;20041;-78
2022/03/21 18:01:37;;;;;;;12.55;6.68;;;;;;;9.90;19.09;99552.97;12517907;23;20075;-77
2022/03/21 18:06:58;;;;;;;13.13;6.05;;;;;;;9.82;19.25;99552.16;12444036;23;20019;-76
2022/03/21 18:12:19;;;;;;;9.57;6.43;;;;;;;9.70;19.75;99559.31;12513046;23;20107;-76
2022/03/21 18:17:40;;;;;;;10.32;6.25;;;;;;;9.60;19.54;99567.44;12494656;23;20082;-78
2022/03/21 18:23:01;;;;;;;13.32;7.28;;;;;;;9.53;19.68;99562.53;12533101;23;20522;-78
2022/03/21 18:28:22;;;;;;;11.18;6.80;;;;;;;9.40;19.77;99571.72;12522980;23;20070;-78
2022/03/21 18:33:43;;;;;;;12.35;6.68;;;;;;;9.32;20.04;99562.53;12479353;23;20030;-78
2022/03/21 18:39:04;;;;;;;10.45;6.50;;;;;;;9.24;20.09;99575.63;12490868;23;20015;-81
2022/03/21 18:44:29;;;;;;;11.15;7.38;;;;;;;9.09;20.64;99573.47;12510474;23;20046;-80
2022/03/21 18:49:50;;;;;;;11.45;7.10;;;;;;;9.00;20.97;99578.75;12456199;23;20080;-77
2022/03/21 18:55:10;;;;;;;10.73;7.68;;;;;;;8.92;20.83;99591.81;12512140;23;20063;-81
2022/03/21 19:00:32;;;;;;;16.25;8.90;;;;;;;8.84;20.97;99591.72;12505560;23;20019;-80
2022/03/21 19:05:53;;;;;;;13.80;8.48;;;;;;;8.73;21.22;99589.19;12474648;23;20023;-77
2022/03/21 19:11:16;;;;;;;14.18;8.52;;;;;;;8.60;21.43;99601.09;12470827;23;20024;-82
2022/03/21 19:22:52;;;;;;;;;;;;;;;8.44;22.06;99602.19;12654918;23;19917;-79
2022/03/21 19:28:14;;;;;;;13.18;8.30;;;;;;;8.37;21.62;99613.94;12705594;23;19923;-79
2022/03/21 19:33:35;;;;;;;14.20;8.70;;;;;;;8.28;22.40;99613.06;12688669;23;20005;-81
2022/03/21 19:39:00;;;;;;;12.02;8.70;;;;;;;8.17;22.61;99615.31;12694819;23;20042;-79
2022/03/21 19:44:21;;;;;;;14.25;8.63;;;;;;;8.10;22.49;99605.56;12715270;23;20069;-79
2022/03/21 19:49:42;;;;;;;13.93;8.77;;;;;;;8.04;22.32;99621.59;12719251;23;20063;-77
2022/03/21 19:55:04;;;;;;;11.90;8.30;;;;;;;7.94;23.01;99620.53;12682787;23;20093;-79
2022/03/21 20:00:27;;;;;;;15.35;8.63;;;;;;;7.88;23.19;99625.41;12638574;23;20024;-79
2022/03/21 20:05:48;;;;;;;14.05;9.43;;;;;;;7.85;22.75;99626.50;12633946;23;20326;-78
2022/03/21 20:11:11;;;;;;;15.23;8.85;;;;;;;7.83;23.25;99634.63;12675405;23;20085;-78
2022/03/21 20:16:31;;;;;;;14.05;8.93;;;;;;;7.71;23.00;99640.34;12687250;23;20025;-79
2022/03/21 20:21:52;;;;;;;16.25;9.48;;;;;;;7.67;23.35;99634.34;12680621;23;20025;-81
2022/03/21 20:27:14;;;;;;;16.02;9.73;;;;;;;7.61;23.14;99636.47;12643014;23;20069;-76
2022/03/21 20:32:39;;;;;;;14.60;8.80;;;;;;;7.57;23.16;99630.47;12676826;23;19998;-80
2022/03/21 20:38:00;;;;;;;15.48;8.50;;;;;;;7.55;23.18;99635.06;12671773;23;20097;-78
2022/03/21 20:43:21;;;;;;;13.15;8.45;;;;;;;7.53;23.59;99635.59;12659987;23;20639;-78
2022/03/21 20:48:42;;;;;;;15.77;8.55;;;;;;;7.45;23.29;99634.72;12657232;23;20018;-78
2022/03/21 20:54:03;;;;;;;12.43;8.15;;;;;;;7.42;23.43;99641.31;12618155;23;20115;-79
2022/03/21 20:59:23;;;;;;;16.65;10.55;;;;;;;7.30;23.67;99645.53;12638214;23;20018;-78
2022/03/21 21:04:44;;;;;;;15.27;8.90;;;;;;;7.21;23.41;99637.56;12637273;23;20097;-77
2022/03/21 21:15:45;;;;;;;13.35;9.07;;;;;;;7.09;23.95;99646.06;12624985;23;20018;-78
2022/03/21 21:21:06;;;;;;;15.00;9.32;;;;;;;7.04;23.91;99637.81;12678627;23;20041;-77
2022/03/21 21:26:27;;;;;;;15.00;9.73;;;;;;;6.99;24.13;99653.28;12616395;23;20025;-78
2022/03/21 21:31:47;;;;;;;14.70;9.27;;;;;;;6.92;24.08;99639.97;12617061;23;20018;-77
2022/03/21 21:37:08;;;;;;;14.68;9.32;;;;;;;6.88;24.34;99656.19;12597928;23;20018;-78
2022/03/21 21:42:29;;;;;;;13.88;9.52;;;;;;;6.88;23.98;99645.84;12636913;23;20041;-77
2022/03/21 21:47:52;;;;;;;15.30;10.13;;;;;;;6.83;24.27;99638.31;12636999;23;20014;-78
2022/03/21 21:53:13;;;;;;;13.30;10.15;;;;;;;6.79;24.46;99634.34;12636892;23;20017;-78
2022/03/21 21:58:34;;;;;;;14.55;9.25;;;;;;;6.75;24.50;99634.63;12656840;23;20021;-78
2022/03/21 22:03:56;;;;;;;14.65;9.93;;;;;;;6.70;24.33;99632.69;12618139;23;20472;-78
2022/03/21 22:09:17;;;;;;;14.20;8.93;;;;;;;6.65;24.72;99630.72;12659442;23;20014;-77
2022/03/21 22:14:41;;;;;;;14.75;9.40;;;;;;;6.64;24.47;99631.25;12640266;23;20552;-78
2022/03/21 22:20:02;;;;;;;13.88;8.40;;;;;;;6.63;24.50;99636.03;12661980;23;20021;-78
2022/03/21 22:25:23;;;;;;;15.98;8.65;;;;;;;6.60;24.43;99635.06;12664937;23;20022;-77
2022/03/21 22:30:43;;;;;;;14.73;9.23;;;;;;;6.57;24.40;99644.44;12620784;23;20348;-77
2022/03/21 22:36:04;;;;;;;14.95;9.00;;;;;;;6.49;24.73;99637.97;12641190;23;20018;-78
2022/03/21 22:47:14;;;;;;;15.77;9.75;;;;;;;6.30;24.88;99635.16;12684747;23;20018;-78
2022/03/21 22:52:34;;;;;;;15.90;10.05;;;;;;;6.17;24.59;99629.47;12623770;23;20026;-78
2022/03/21 22:57:55;;;;;;;14.02;9.88;;;;;;;6.10;24.93;99629.31;12620515;23;20022;-78
2022/03/21 23:03:16;;;;;;;17.52;9.82;;;;;;;6.02;24.85;99627.13;12633167;23;20018;-78
2022/03/21 23:08:37;;;;;;;15.68;9.43;;;;;;;5.94;25.13;99628.19;12660213;23;20454;-78
2022/03/21 23:13:58;;;;;;;16.92;9.13;;;;;;;5.88;24.98;99631.00;12660823;23;20075;-78
2022/03/21 23:19:19;;;;;;;16.42;9.55;;;;;;;5.79;25.27;99634.13;12619862;23;20014;-78
2022/03/21 23:24:40;;;;;;;15.82;9.30;;;;;;;5.74;25.18;99632.88;12621675;23;20395;-78
2022/03/21 23:30:02;;;;;;;18.13;9.23;;;;;;;5.68;25.52;99631.41;12619299;23;20025;-78
2022/03/21 23:35:24;;;;;;;16.20;10.38;;;;;;;5.60;25.24;99631.25;12661164;23;20014;-78
2022/03/21 23:46:25;;;;;;;15.23;10.45;;;;;;;5.39;26.12;99630.13;12642914;23;20018;-78
2022/03/21 23:51:46;;;;;;;19.35;10.70;;;;;;;5.32;26.63;99628.66;12619804;23;20026;-78
2022/03/21 23:57:07;;;;;;;15.52;10.45;;;;;;;5.22;26.25;99630.25;12660438;23;20049;-79
